createdAt,value
2018-07-21T00:02:23.360Z,15.80
2018-07-21T00:05:27.584Z,15.70
2018-07-21T00:08:31.780Z,15.60
2018-07-21T00:11:36.026Z,15.60
2018-07-21T00:14:40.213Z,15.50
2018-07-21T00:17:44.456Z,15.50
2018-07-21T00:20:48.709Z,15.50
2018-07-21T00:23:52.916Z,15.40
2018-07-21T00:26:57.132Z,15.30
2018-07-21T00:30:01.342Z,15.30
2018-07-21T00:33:05.585Z,15.20
2018-07-21T00:36:09.809Z,15.10
2018-07-21T00:39:15.480Z,15.00
2018-07-21T00:42:19.745Z,15.00
2018-07-21T00:45:24.033Z,14.90
2018-07-21T00:48:28.248Z,14.90
2018-07-21T00:51:32.440Z,14.90
2018-07-21T00:54:36.668Z,14.90
2018-07-21T00:57:40.873Z,14.90
2018-07-21T01:00:45.075Z,14.90
2018-07-21T01:03:49.280Z,14.80
2018-07-21T01:06:53.480Z,14.80
2018-07-21T01:09:57.702Z,14.80
2018-07-21T01:13:01.914Z,14.70
2018-07-21T01:16:06.437Z,14.80
2018-07-21T01:19:10.653Z,14.70
2018-07-21T01:22:14.933Z,14.70
2018-07-21T01:25:19.188Z,14.60
2018-07-21T01:28:23.405Z,14.60
2018-07-21T01:31:27.604Z,14.60
2018-07-21T01:34:31.797Z,14.50
2018-07-21T01:37:36.001Z,14.50
2018-07-21T01:40:40.198Z,14.50
2018-07-21T01:43:44.404Z,14.40
2018-07-21T01:46:48.606Z,14.40
2018-07-21T01:49:52.819Z,14.40
2018-07-21T01:52:57.061Z,14.40
2018-07-21T01:56:01.260Z,14.40
2018-07-21T01:59:05.477Z,14.40
2018-07-21T02:02:09.717Z,14.40
2018-07-21T02:05:14.072Z,14.40
2018-07-21T02:08:18.277Z,14.30
2018-07-21T02:11:22.496Z,14.30
2018-07-21T02:14:26.693Z,14.20
2018-07-21T02:17:30.893Z,14.20
2018-07-21T02:20:35.089Z,14.10
2018-07-21T02:23:39.359Z,14.10
2018-07-21T02:26:43.566Z,14.00
2018-07-21T02:29:47.788Z,13.90
2018-07-21T02:32:52.007Z,13.90
2018-07-21T02:39:00.293Z,13.80
2018-07-21T02:42:04.506Z,13.70
2018-07-21T02:45:08.736Z,13.70
2018-07-21T02:48:12.934Z,13.60
2018-07-21T02:51:17.149Z,13.60
2018-07-21T02:54:21.558Z,13.60
2018-07-21T02:57:25.747Z,13.60
2018-07-21T03:00:29.961Z,13.60
2018-07-21T03:03:34.189Z,13.50
2018-07-21T03:06:38.385Z,13.60
2018-07-21T03:09:42.590Z,13.50
2018-07-21T03:12:46.804Z,13.50
2018-07-21T03:15:51.005Z,13.40
2018-07-21T03:18:55.234Z,13.40
2018-07-21T03:21:59.409Z,13.30
2018-07-21T03:25:03.637Z,13.30
2018-07-21T03:28:07.872Z,13.30
2018-07-21T03:31:12.074Z,13.20
2018-07-21T03:34:16.297Z,13.20
2018-07-21T03:37:20.489Z,13.20
2018-07-21T03:40:24.760Z,13.10
2018-07-21T03:43:28.936Z,13.10
2018-07-21T03:46:33.148Z,13.00
2018-07-21T03:49:37.336Z,13.00
2018-07-21T03:58:49.561Z,13.10
2018-07-21T04:01:53.753Z,13.20
2018-07-21T04:04:57.973Z,13.20
2018-07-21T04:08:02.181Z,13.30
2018-07-21T04:11:06.529Z,13.30
2018-07-21T04:14:10.956Z,13.30
2018-07-21T04:17:23.237Z,13.40
2018-07-21T04:20:27.424Z,13.40
2018-07-21T04:23:31.625Z,13.40
2018-07-21T04:26:35.906Z,13.40
2018-07-21T04:29:40.104Z,13.50
2018-07-21T04:35:51.909Z,13.60
2018-07-21T04:38:56.125Z,13.70
2018-07-21T04:42:00.328Z,13.70
2018-07-21T04:45:04.520Z,13.70
2018-07-21T04:48:08.730Z,13.80
2018-07-21T04:51:12.961Z,13.90
2018-07-21T04:54:17.177Z,13.90
2018-07-21T04:57:21.397Z,14.10
2018-07-21T05:00:25.613Z,14.20
2018-07-21T05:03:29.829Z,14.40
2018-07-21T05:06:34.060Z,14.50
2018-07-21T05:09:38.274Z,14.60
2018-07-21T05:12:42.500Z,14.70
2018-07-21T05:15:46.711Z,14.70
2018-07-21T05:18:50.945Z,14.80
2018-07-21T05:21:55.163Z,14.90
2018-07-21T05:24:59.417Z,15.00
2018-07-21T05:28:03.650Z,15.10
2018-07-21T05:31:07.925Z,15.20
2018-07-21T05:34:12.174Z,15.30
2018-07-21T05:37:16.380Z,15.50
2018-07-21T05:40:20.612Z,15.70
2018-07-21T05:43:24.884Z,15.80
2018-07-21T05:46:29.106Z,15.90
2018-07-21T05:49:33.473Z,16.10
2018-07-21T05:52:37.737Z,16.30
2018-07-21T05:55:41.953Z,16.40
2018-07-21T05:58:46.177Z,16.50
2018-07-21T06:01:50.434Z,16.60
2018-07-21T06:04:54.657Z,16.80
2018-07-21T06:07:58.852Z,16.90
2018-07-21T06:11:03.105Z,17.10
2018-07-21T06:14:07.473Z,17.30
2018-07-21T06:17:12.125Z,17.50
2018-07-21T06:20:16.361Z,17.70
2018-07-21T06:23:20.595Z,17.80
2018-07-21T06:26:24.809Z,18.00
2018-07-21T06:29:29.054Z,18.20
2018-07-21T06:32:33.252Z,18.30
2018-07-21T06:35:37.537Z,18.50
2018-07-21T06:38:41.762Z,18.70
2018-07-21T06:41:45.992Z,18.80
2018-07-21T06:44:50.203Z,19.00
2018-07-21T06:47:54.453Z,19.10
2018-07-21T06:50:58.755Z,19.20
2018-07-21T06:54:03.044Z,19.30
2018-07-21T06:57:07.317Z,19.50
2018-07-21T07:03:15.521Z,19.70
2018-07-21T07:06:19.783Z,19.90
2018-07-21T07:09:24.031Z,20.10
2018-07-21T07:12:28.270Z,20.20
2018-07-21T07:15:32.486Z,20.40
2018-07-21T07:18:36.778Z,20.50
2018-07-21T07:21:41.085Z,20.70
2018-07-21T07:24:45.410Z,20.80
2018-07-21T07:27:49.612Z,21.00
2018-07-21T07:30:53.821Z,21.10
2018-07-21T07:33:58.044Z,21.30
2018-07-21T07:37:02.272Z,21.40
2018-07-21T07:40:06.536Z,21.60
2018-07-21T07:43:10.789Z,21.70
2018-07-21T07:46:14.993Z,21.80
2018-07-21T07:49:19.223Z,22.00
2018-07-21T07:52:23.429Z,22.10
2018-07-21T07:55:32.097Z,22.20
2018-07-21T07:58:36.369Z,22.40
2018-07-21T08:01:40.581Z,22.50
2018-07-21T08:04:44.809Z,22.70
2018-07-21T08:07:48.992Z,22.80
2018-07-21T08:10:53.204Z,23.00
2018-07-21T08:13:57.398Z,23.10
2018-07-21T08:17:01.624Z,23.30
2018-07-21T08:20:05.880Z,23.40
2018-07-21T08:23:10.124Z,23.60
2018-07-21T08:26:14.319Z,23.70
2018-07-21T08:29:18.557Z,23.70
2018-07-21T08:32:22.780Z,23.80
2018-07-21T08:35:26.981Z,24.00
2018-07-21T08:38:31.214Z,24.20
2018-07-21T08:41:35.513Z,24.30
2018-07-21T08:44:39.708Z,24.50
2018-07-21T08:47:43.975Z,24.70
2018-07-21T08:50:48.326Z,24.80
2018-07-21T08:53:52.569Z,24.90
2018-07-21T08:56:56.844Z,25.10
2018-07-21T09:00:01.110Z,25.10
2018-07-21T09:03:05.409Z,25.10
2018-07-21T09:06:09.624Z,25.10
2018-07-21T09:09:13.856Z,25.10
2018-07-21T09:12:18.074Z,25.20
2018-07-21T09:15:22.380Z,25.40
2018-07-21T09:18:26.640Z,25.50
2018-07-21T09:21:31.028Z,25.70
2018-07-21T09:24:35.276Z,25.70
2018-07-21T09:27:39.520Z,25.70
2018-07-21T09:30:43.841Z,25.60
2018-07-21T09:33:48.104Z,25.70
2018-07-21T09:36:52.426Z,25.80
2018-07-21T09:39:56.736Z,26.00
2018-07-21T09:43:01.017Z,26.00
2018-07-21T09:46:05.904Z,26.00
2018-07-21T09:49:10.157Z,26.00
2018-07-21T09:52:14.317Z,26.10
2018-07-21T09:55:18.540Z,26.30
2018-07-21T09:58:22.738Z,26.30
2018-07-21T10:01:26.947Z,26.30
2018-07-21T10:04:31.171Z,26.30
2018-07-21T10:07:35.369Z,26.40
2018-07-21T10:10:39.608Z,26.50
2018-07-21T10:13:43.835Z,26.50
2018-07-21T10:16:48.062Z,26.50
2018-07-21T10:19:52.409Z,26.50
2018-07-21T10:22:56.644Z,26.50
2018-07-21T10:26:06.217Z,26.60
2018-07-21T10:32:17.618Z,26.60
2018-07-21T10:35:21.856Z,26.70
2018-07-21T10:38:26.073Z,26.80
2018-07-21T10:41:30.314Z,26.90
2018-07-21T10:44:34.609Z,27.10
2018-07-21T10:47:38.772Z,27.20
2018-07-21T10:50:42.964Z,27.20
2018-07-21T10:53:47.173Z,27.20
2018-07-21T10:56:51.384Z,27.30
2018-07-21T10:59:55.597Z,27.30
2018-07-21T11:02:59.808Z,27.40
2018-07-21T11:09:10.413Z,27.60
2018-07-21T11:12:14.652Z,27.80
2018-07-21T11:15:18.928Z,27.80
2018-07-21T11:18:23.173Z,27.70
2018-07-21T11:21:27.411Z,27.50
2018-07-21T11:24:31.698Z,27.50
2018-07-21T11:27:36.163Z,27.50
2018-07-21T11:30:40.369Z,27.40
2018-07-21T11:33:44.614Z,27.20
2018-07-21T11:36:48.858Z,27.10
2018-07-21T11:39:53.524Z,27.10
2018-07-21T11:42:57.718Z,26.90
2018-07-21T11:46:01.947Z,26.90
2018-07-21T11:49:06.244Z,26.90
2018-07-21T11:52:10.492Z,27.00
2018-07-21T11:55:14.725Z,27.10
2018-07-21T11:58:19.237Z,27.20
2018-07-21T12:01:23.497Z,27.40
2018-07-21T12:04:28.589Z,27.50
2018-07-21T12:07:32.837Z,27.60
2018-07-21T12:10:37.279Z,27.70
2018-07-21T12:13:41.590Z,27.80
2018-07-21T12:16:45.817Z,27.90
2018-07-21T12:19:50.112Z,27.90
2018-07-21T12:22:56.188Z,28.00
2018-07-21T12:26:00.536Z,27.90
2018-07-21T12:29:05.652Z,27.80
2018-07-21T12:32:10.028Z,27.80
2018-07-21T12:35:14.389Z,27.70
2018-07-21T12:38:18.921Z,27.60
2018-07-21T12:41:23.322Z,27.40
2018-07-21T12:44:27.592Z,27.20
2018-07-21T12:47:31.835Z,27.10
2018-07-21T12:50:36.114Z,27.20
2018-07-21T12:53:40.393Z,27.30
2018-07-21T12:56:44.621Z,27.40
2018-07-21T12:59:48.915Z,27.50
2018-07-21T13:02:53.153Z,27.60
2018-07-21T13:05:57.500Z,27.60
2018-07-21T13:09:02.198Z,27.80
2018-07-21T13:12:06.696Z,27.90
2018-07-21T13:15:10.933Z,28.00
2018-07-21T13:18:15.246Z,27.90
2018-07-21T13:21:19.520Z,27.90
2018-07-21T13:24:23.749Z,27.90
2018-07-21T13:27:28.042Z,27.90
2018-07-21T13:30:32.305Z,27.90
2018-07-21T13:33:36.549Z,27.90
2018-07-21T13:36:40.842Z,27.80
2018-07-21T13:39:45.085Z,27.80
2018-07-21T13:42:49.337Z,27.80
2018-07-21T13:45:53.604Z,27.70
2018-07-21T13:48:57.851Z,27.70
2018-07-21T13:52:02.114Z,27.60
2018-07-21T13:55:06.870Z,27.70
2018-07-21T13:58:11.082Z,27.70
2018-07-21T14:01:15.353Z,27.70
2018-07-21T14:04:19.621Z,27.70
2018-07-21T14:07:23.889Z,27.70
2018-07-21T14:10:28.257Z,27.80
2018-07-21T14:13:32.504Z,27.70
2018-07-21T14:16:36.766Z,27.70
2018-07-21T14:22:45.449Z,27.70
2018-07-21T14:25:49.808Z,27.70
2018-07-21T14:28:54.054Z,27.80
2018-07-21T14:31:58.337Z,27.90
2018-07-21T14:35:02.575Z,28.00
2018-07-21T14:38:07.009Z,28.20
2018-07-21T14:44:15.298Z,28.50
2018-07-21T14:47:19.509Z,28.70
2018-07-21T14:50:23.723Z,28.90
2018-07-21T14:53:27.915Z,29.10
2018-07-21T14:56:32.176Z,29.20
2018-07-21T14:59:36.427Z,29.30
2018-07-21T15:02:40.723Z,29.20
2018-07-21T15:05:45.001Z,29.30
2018-07-21T15:08:49.268Z,29.40
2018-07-21T15:11:53.574Z,29.50
2018-07-21T15:14:57.947Z,29.60
2018-07-21T15:18:02.203Z,29.60
2018-07-21T15:21:06.482Z,29.40
2018-07-21T15:24:10.780Z,29.20
2018-07-21T15:27:15.058Z,29.10
2018-07-21T15:30:19.304Z,29.10
2018-07-21T15:33:23.561Z,29.20
2018-07-21T15:36:27.800Z,29.10
2018-07-21T15:39:32.028Z,28.80
2018-07-21T15:42:36.269Z,28.60
2018-07-21T15:45:40.513Z,28.30
2018-07-21T15:48:44.780Z,28.10
2018-07-21T15:51:49.033Z,27.90
2018-07-21T15:54:53.271Z,27.80
2018-07-21T15:57:57.540Z,27.70
2018-07-21T16:01:01.784Z,27.60
2018-07-21T16:04:06.069Z,27.40
2018-07-21T16:07:10.296Z,27.40
2018-07-21T16:10:14.613Z,27.30
2018-07-21T16:13:18.905Z,27.20
2018-07-21T16:16:23.162Z,27.20
2018-07-21T16:19:27.432Z,27.00
2018-07-21T16:22:31.684Z,27.00
2018-07-21T16:25:35.969Z,27.00
2018-07-21T16:28:40.215Z,26.90
2018-07-21T16:31:44.472Z,26.90
2018-07-21T16:34:48.774Z,26.70
2018-07-21T16:37:52.964Z,26.70
2018-07-21T16:40:57.216Z,26.70
2018-07-21T16:44:01.490Z,26.60
2018-07-21T16:47:06.294Z,26.60
2018-07-21T16:50:10.544Z,26.60
2018-07-21T16:53:14.793Z,26.50
2018-07-21T16:56:19.044Z,26.50
2018-07-21T16:59:23.321Z,26.40
2018-07-21T17:02:27.577Z,26.30
2018-07-21T17:05:31.816Z,26.30
2018-07-21T17:08:36.067Z,26.30
2018-07-21T17:11:40.341Z,26.20
2018-07-21T17:14:44.586Z,26.10
2018-07-21T17:17:48.847Z,26.00
2018-07-21T17:20:53.119Z,25.90
2018-07-21T17:23:57.370Z,25.90
2018-07-21T17:27:01.610Z,25.90
2018-07-21T17:30:05.896Z,25.80
2018-07-21T17:33:10.142Z,25.70
2018-07-21T17:36:14.413Z,25.60
2018-07-21T17:42:22.672Z,25.50
2018-07-21T17:45:26.924Z,25.50
2018-07-21T17:48:31.161Z,25.40
2018-07-21T17:51:35.956Z,25.40
2018-07-21T17:54:40.199Z,25.20
2018-07-21T17:57:44.480Z,25.10
2018-07-21T18:00:48.715Z,25.10
2018-07-21T18:03:53.033Z,25.10
2018-07-21T18:06:57.332Z,25.00
2018-07-21T18:10:01.585Z,24.90
2018-07-21T18:13:05.852Z,24.80
2018-07-21T18:16:10.166Z,24.80
2018-07-21T18:19:14.368Z,24.70
2018-07-21T18:22:18.641Z,24.70
2018-07-21T18:25:22.959Z,24.60
2018-07-21T18:28:27.162Z,24.50
2018-07-21T18:31:31.407Z,24.40
2018-07-21T18:34:35.661Z,24.30
2018-07-21T18:37:39.949Z,24.30
2018-07-21T18:40:44.192Z,24.20
2018-07-21T18:43:48.451Z,24.10
2018-07-21T18:46:52.677Z,24.10
2018-07-21T18:49:56.947Z,24.00
2018-07-21T18:53:01.207Z,23.90
2018-07-21T18:56:05.573Z,23.90
2018-07-21T18:59:09.808Z,23.70
2018-07-21T19:02:14.058Z,23.70
2018-07-21T19:05:18.273Z,23.60
2018-07-21T19:08:22.521Z,23.50
2018-07-21T19:11:26.760Z,23.50
2018-07-21T19:14:31.015Z,23.40
2018-07-21T19:17:35.319Z,23.30
2018-07-21T19:20:44.877Z,23.30
2018-07-21T19:23:50.180Z,23.20
2018-07-21T19:26:59.665Z,23.10
2018-07-21T19:30:03.973Z,23.10
2018-07-21T19:33:08.261Z,23.00
2018-07-21T19:36:12.484Z,23.00
2018-07-21T19:39:16.716Z,23.00
2018-07-21T19:42:20.948Z,22.90
2018-07-21T19:45:25.201Z,22.90
2018-07-21T19:48:29.452Z,22.80
2018-07-21T19:51:33.693Z,22.70
2018-07-21T19:54:37.936Z,22.60
2018-07-21T19:57:42.201Z,22.60
2018-07-21T20:00:46.438Z,22.60
2018-07-21T20:03:50.673Z,22.50
2018-07-21T20:06:54.933Z,22.40
2018-07-21T20:09:59.254Z,22.40
2018-07-21T20:13:03.553Z,22.40
2018-07-21T20:16:07.803Z,22.30
2018-07-21T20:19:12.034Z,22.30
2018-07-21T20:22:16.377Z,22.30
2018-07-21T20:25:21.798Z,22.20
2018-07-21T20:28:26.056Z,22.20
2018-07-21T20:31:30.353Z,22.20
2018-07-21T20:34:36.008Z,22.20
2018-07-21T20:37:40.373Z,22.10
2018-07-21T20:40:44.662Z,22.10
2018-07-21T20:43:49.003Z,22.00
2018-07-21T20:46:53.254Z,22.00
2018-07-21T20:49:57.502Z,21.90
2018-07-21T20:53:01.744Z,21.90
2018-07-21T20:56:06.025Z,21.90
2018-07-21T20:59:10.324Z,21.80
2018-07-21T21:02:14.722Z,21.80
2018-07-21T21:05:18.980Z,21.70
2018-07-21T21:08:23.318Z,21.70
2018-07-21T21:11:27.558Z,21.70
2018-07-21T21:14:31.804Z,21.70
2018-07-21T21:17:36.026Z,21.60
2018-07-21T21:20:40.288Z,21.60
2018-07-21T21:23:45.153Z,21.60
2018-07-21T21:26:49.449Z,21.50
2018-07-21T21:29:53.832Z,21.50
2018-07-21T21:32:58.120Z,21.50
2018-07-21T21:36:02.369Z,21.50
2018-07-21T21:39:10.649Z,21.50
2018-07-21T21:42:14.965Z,21.40
2018-07-21T21:45:19.158Z,21.30
2018-07-21T21:48:23.443Z,21.30
2018-07-21T21:51:27.664Z,21.20
2018-07-21T21:54:31.942Z,21.20
2018-07-21T21:57:36.205Z,21.10
2018-07-21T22:01:15.657Z,21.10
2018-07-21T22:04:19.901Z,21.10
2018-07-21T22:07:24.141Z,21.10
2018-07-21T22:10:28.397Z,21.10
2018-07-21T22:13:32.680Z,21.10
2018-07-21T22:16:36.932Z,21.00
2018-07-21T22:19:41.201Z,21.00
2018-07-21T22:22:46.084Z,21.00
2018-07-21T22:25:50.364Z,20.90
2018-07-21T22:28:54.602Z,20.90
2018-07-21T22:31:58.839Z,20.90
2018-07-21T22:35:03.085Z,20.80
2018-07-21T22:38:07.312Z,20.80
2018-07-21T22:41:11.572Z,20.80
2018-07-21T22:44:15.836Z,20.80
2018-07-21T22:47:20.077Z,20.70
2018-07-21T22:50:24.390Z,20.70
2018-07-21T22:53:28.640Z,20.60
2018-07-21T22:56:32.877Z,20.70
2018-07-21T22:59:37.137Z,20.60
2018-07-21T23:02:42.154Z,20.60
2018-07-21T23:05:46.422Z,20.60
2018-07-21T23:11:54.648Z,20.60
2018-07-21T23:14:58.888Z,20.60
2018-07-21T23:18:03.174Z,20.60
2018-07-21T23:21:07.412Z,20.60
2018-07-21T23:24:11.652Z,20.50
2018-07-21T23:27:15.906Z,20.50
2018-07-21T23:30:20.967Z,20.50
2018-07-21T23:33:25.199Z,20.40
2018-07-21T23:36:29.447Z,20.40
2018-07-21T23:39:33.704Z,20.30
2018-07-21T23:42:37.981Z,20.30
2018-07-21T23:45:42.233Z,20.30
2018-07-21T23:48:46.505Z,20.30
2018-07-21T23:51:50.782Z,20.20
2018-07-21T23:54:55.033Z,20.20
2018-07-21T23:57:59.245Z,20.10
